»·PEaware :: UAL576 KPDX-KMFR

UAL576 :: KPDX-KMFR

FLIGHT INFORMATION

Flight Status: Arrived
Operator:
United Airlines
More flights by this operator :: More flights under this callsign
Pilot: Anonymous 8274 (8274)
Aircraft: BOEING 737-200
(B732)
More flights by this aircraft type
Origin: KPDX Portland Intl
United States
Destination: KMFR Rogue Valley Intl-Medford
United States
More flights between these airports :: More routes between these airports
Route: +UBG J126 EUG V23 OED
File this flight plan on PilotEdge
Remarks:
Altitude:
(Current/Filed)
27,000ft
Speed:
(Current/Filed)
440kts
Departed: 13-Dec-17 04:50 PM
Arrived: 13-Dec-17 05:33 PM
Distance/Time
Traveled:
194nm/0:43
Distance/Time
To Go:
Arrived

Flight Plot

Page will automatically refresh every two minutes.

Flight plan parsing failed; only flown route is shown


Map Options




Map Legend


Flown Route
Filed Route
Departure Airport
Arrival Airport
Navaid (VOR, NDB)
Fix

Horizontal Profiles

Position Reports

Time Latitude Longitude Heading Altitude Ground
Speed
13-Dec-17 16:33 45.590255 -122.594390 54 38ft 0kts
13-Dec-17 16:34 45.590255 -122.594390 54 38ft 0kts
13-Dec-17 16:35 45.590255 -122.594390 54 38ft 0kts
13-Dec-17 16:36 45.590255 -122.594390 54 38ft 0kts
13-Dec-17 16:37 45.590255 -122.594390 54 38ft 0kts
13-Dec-17 16:39 45.590255 -122.594390 54 38ft 0kts
13-Dec-17 16:40 45.590255 -122.594390 54 38ft 0kts
13-Dec-17 16:41 45.590255 -122.594390 54 38ft 0kts
13-Dec-17 16:42 45.590255 -122.594390 54 38ft 0kts
13-Dec-17 16:43 45.590255 -122.594390 54 38ft 0kts
13-Dec-17 16:44 45.590255 -122.594390 54 38ft 0kts
13-Dec-17 16:45 45.590255 -122.594390 54 38ft 0kts
13-Dec-17 16:46 45.590255 -122.594390 54 38ft 0kts
13-Dec-17 16:47 45.590255 -122.594390 54 38ft 0kts
13-Dec-17 16:48 45.589801 -122.594993 341 37ft 6kts
13-Dec-17 16:49 45.590921 -122.598136 299 38ft 0kts
13-Dec-17 16:50 45.590921 -122.598136 299 37ft 0kts
13-Dec-17 16:51 45.590921 -122.598136 299 37ft 0kts
13-Dec-17 16:52 45.592909 -122.599690 40 38ft 15kts
13-Dec-17 16:53 45.594417 -122.597538 45 38ft 0kts
13-Dec-17 16:54 45.594417 -122.597538 45 38ft 0kts
13-Dec-17 16:55 45.594215 -122.594055 117 38ft 38kts
13-Dec-17 16:56 45.578873 -122.561972 119 1593ft 111kts
13-Dec-17 16:57 45.553350 -122.506676 118 3433ft 205kts
13-Dec-17 16:58 45.511582 -122.440783 164 6167ft 266kts
13-Dec-17 16:59 45.451919 -122.502823 246 9792ft 295kts
13-Dec-17 17:00 45.424941 -122.617721 251 11892ft 340kts
13-Dec-17 17:01 45.398059 -122.748137 255 14667ft 348kts
13-Dec-17 17:02 45.377502 -122.882117 262 17388ft 344kts
13-Dec-17 17:03 45.323836 -122.990136 205 19263ft 375kts
13-Dec-17 17:04 45.234795 -122.991184 183 20657ft 390kts
13-Dec-17 17:05 45.126634 -123.008178 189 22157ft 400kts
13-Dec-17 17:06 45.015061 -123.028445 191 23532ft 409kts
13-Dec-17 17:07 44.903126 -123.056119 192 24732ft 418kts
13-Dec-17 17:08 44.794755 -123.083070 192 25717ft 426kts
13-Dec-17 17:09 44.676944 -123.110892 190 26672ft 434kts
13-Dec-17 17:10 44.557157 -123.135250 190 27368ft 445kts
13-Dec-17 17:11 44.431585 -123.160822 191 27357ft 470kts
13-Dec-17 17:12 44.299966 -123.187431 190 27356ft 489kts
13-Dec-17 17:13 44.167149 -123.213984 186 27074ft 478kts
13-Dec-17 17:14 44.040604 -123.191025 168 24427ft 465kts
13-Dec-17 17:15 43.922800 -123.170142 176 24334ft 406kts
13-Dec-17 17:16 43.815977 -123.154647 176 24353ft 413kts
13-Dec-17 17:17 43.702088 -123.138229 176 22873ft 412kts
13-Dec-17 17:18 43.590846 -123.122780 176 20876ft 396kts
13-Dec-17 17:19 43.484243 -123.099180 169 18880ft 384kts
13-Dec-17 17:20 43.381820 -123.069380 169 16917ft 372kts
13-Dec-17 17:21 43.282370 -123.041850 173 14987ft 362kts
13-Dec-17 17:22 43.184078 -123.030048 178 13119ft 351kts
13-Dec-17 17:23 43.088367 -123.024374 178 11366ft 340kts
13-Dec-17 17:24 42.997782 -123.009015 174 9986ft 318kts
13-Dec-17 17:25 42.918431 -122.992531 173 8674ft 283kts
13-Dec-17 17:26 42.845137 -122.981052 173 7024ft 270kts
13-Dec-17 17:27 42.774992 -122.970077 173 7068ft 240kts
13-Dec-17 17:28 42.704282 -122.956243 171 7079ft 268kts
13-Dec-17 17:29 42.630593 -122.941117 171 7079ft 269kts
13-Dec-17 17:30 42.557277 -122.926052 171 7008ft 260kts
13-Dec-17 17:31 42.492750 -122.912781 171 6083ft 211kts
13-Dec-17 17:32 42.455869 -122.872608 96 5771ft 187kts
13-Dec-17 17:33 42.456591 -122.803958 41 4965ft 183kts
13-Dec-17 17:34 42.496919 -122.816320 295 4974ft 161kts
13-Dec-17 17:35 42.506429 -122.871668 236 4968ft 160kts
13-Dec-17 17:36 42.470503 -122.899335 203 4400ft 145kts
13-Dec-17 17:37 42.431181 -122.903422 155 2843ft 142kts
13-Dec-17 17:38 42.396066 -122.884342 158 1592ft 132kts
13-Dec-17 17:39 42.371721 -122.871601 158 1324ft 38kts
13-Dec-17 17:40 42.369381 -122.871687 226 1323ft 0kts
13-Dec-17 17:41 42.368753 -122.872725 242 1323ft 17kts

Navigation Log

Ident Type
Flight plan parsing failed, navigation log unavailable